sensor_id;sensor_type;location;lat;lon;timestamp;P1;durP1;ratioP1;P2;durP2;ratioP2
11191;SDS011;5652;48.406;10.820;2023-04-06T00:01:06;11.25;;;9.70;;
11191;SDS011;5652;48.406;10.820;2023-04-06T00:03:33;12.98;;;9.95;;
11191;SDS011;5652;48.406;10.820;2023-04-06T00:06:02;12.77;;;9.60;;
11191;SDS011;5652;48.406;10.820;2023-04-06T00:08:29;12.02;;;9.20;;
11191;SDS011;5652;48.406;10.820;2023-04-06T00:10:56;10.63;;;9.00;;
11191;SDS011;5652;48.406;10.820;2023-04-06T00:13:23;11.73;;;8.68;;
11191;SDS011;5652;48.406;10.820;2023-04-06T00:15:50;11.35;;;9.10;;
11191;SDS011;5652;48.406;10.820;2023-04-06T00:18:18;12.43;;;9.60;;
11191;SDS011;5652;48.406;10.820;2023-04-06T00:20:45;14.35;;;10.75;;
11191;SDS011;5652;48.406;10.820;2023-04-06T00:23:13;14.05;;;10.55;;
11191;SDS011;5652;48.406;10.820;2023-04-06T00:25:41;13.93;;;10.48;;
11191;SDS011;5652;48.406;10.820;2023-04-06T00:28:08;11.50;;;9.90;;
11191;SDS011;5652;48.406;10.820;2023-04-06T00:30:35;11.75;;;9.88;;
11191;SDS011;5652;48.406;10.820;2023-04-06T00:33:02;13.57;;;10.73;;
11191;SDS011;5652;48.406;10.820;2023-04-06T00:35:29;12.50;;;10.15;;
11191;SDS011;5652;48.406;10.820;2023-04-06T00:37:56;11.95;;;10.40;;
11191;SDS011;5652;48.406;10.820;2023-04-06T00:40:25;12.40;;;10.20;;
11191;SDS011;5652;48.406;10.820;2023-04-06T00:42:53;12.38;;;10.00;;
11191;SDS011;5652;48.406;10.820;2023-04-06T00:45:20;10.93;;;9.73;;
11191;SDS011;5652;48.406;10.820;2023-04-06T00:47:47;11.50;;;10.05;;
11191;SDS011;5652;48.406;10.820;2023-04-06T00:50:14;12.52;;;9.90;;
11191;SDS011;5652;48.406;10.820;2023-04-06T00:52:41;14.05;;;10.38;;
11191;SDS011;5652;48.406;10.820;2023-04-06T00:55:09;11.32;;;10.10;;
11191;SDS011;5652;48.406;10.820;2023-04-06T00:57:37;12.07;;;10.48;;
11191;SDS011;5652;48.406;10.820;2023-04-06T01:00:05;14.27;;;10.73;;
11191;SDS011;5652;48.406;10.820;2023-04-06T01:02:32;12.57;;;10.67;;
11191;SDS011;5652;48.406;10.820;2023-04-06T01:04:59;12.57;;;11.05;;
11191;SDS011;5652;48.406;10.820;2023-04-06T01:07:27;13.65;;;11.25;;
11191;SDS011;5652;48.406;10.820;2023-04-06T01:09:55;12.20;;;10.65;;
11191;SDS011;5652;48.406;10.820;2023-04-06T01:12:22;12.73;;;10.43;;
11191;SDS011;5652;48.406;10.820;2023-04-06T01:14:50;11.73;;;10.15;;
11191;SDS011;5652;48.406;10.820;2023-04-06T01:17:17;12.30;;;10.30;;
11191;SDS011;5652;48.406;10.820;2023-04-06T01:19:44;12.45;;;10.63;;
11191;SDS011;5652;48.406;10.820;2023-04-06T01:22:16;14.07;;;10.75;;
11191;SDS011;5652;48.406;10.820;2023-04-06T01:24:43;13.18;;;10.48;;
11191;SDS011;5652;48.406;10.820;2023-04-06T01:27:11;11.93;;;10.10;;
11191;SDS011;5652;48.406;10.820;2023-04-06T01:29:38;12.75;;;10.48;;
11191;SDS011;5652;48.406;10.820;2023-04-06T01:32:06;15.07;;;10.85;;
11191;SDS011;5652;48.406;10.820;2023-04-06T01:34:33;13.52;;;11.32;;
11191;SDS011;5652;48.406;10.820;2023-04-06T01:37:01;13.27;;;10.93;;
11191;SDS011;5652;48.406;10.820;2023-04-06T01:39:29;14.02;;;11.80;;
11191;SDS011;5652;48.406;10.820;2023-04-06T01:41:57;13.60;;;11.20;;
11191;SDS011;5652;48.406;10.820;2023-04-06T01:44:24;15.83;;;12.07;;
11191;SDS011;5652;48.406;10.820;2023-04-06T01:46:51;13.03;;;11.60;;
11191;SDS011;5652;48.406;10.820;2023-04-06T01:49:19;14.68;;;11.60;;
11191;SDS011;5652;48.406;10.820;2023-04-06T01:51:46;15.33;;;12.30;;
11191;SDS011;5652;48.406;10.820;2023-04-06T01:54:13;14.40;;;12.00;;
11191;SDS011;5652;48.406;10.820;2023-04-06T01:56:41;14.10;;;12.10;;
11191;SDS011;5652;48.406;10.820;2023-04-06T01:59:08;14.48;;;12.52;;
11191;SDS011;5652;48.406;10.820;2023-04-06T02:01:36;13.90;;;12.40;;
11191;SDS011;5652;48.406;10.820;2023-04-06T02:04:03;15.13;;;13.52;;
11191;SDS011;5652;48.406;10.820;2023-04-06T02:06:30;15.45;;;12.98;;
11191;SDS011;5652;48.406;10.820;2023-04-06T02:08:57;15.60;;;12.85;;
11191;SDS011;5652;48.406;10.820;2023-04-06T02:11:24;14.57;;;12.57;;
11191;SDS011;5652;48.406;10.820;2023-04-06T02:13:52;14.15;;;11.05;;
11191;SDS011;5652;48.406;10.820;2023-04-06T02:16:20;12.52;;;10.90;;
11191;SDS011;5652;48.406;10.820;2023-04-06T02:18:47;12.43;;;10.80;;
11191;SDS011;5652;48.406;10.820;2023-04-06T02:21:14;13.33;;;10.67;;
11191;SDS011;5652;48.406;10.820;2023-04-06T02:23:44;12.13;;;10.43;;
11191;SDS011;5652;48.406;10.820;2023-04-06T02:26:12;13.10;;;11.30;;
11191;SDS011;5652;48.406;10.820;2023-04-06T02:28:39;13.57;;;11.50;;
11191;SDS011;5652;48.406;10.820;2023-04-06T02:31:08;13.55;;;11.43;;
11191;SDS011;5652;48.406;10.820;2023-04-06T02:33:36;14.33;;;11.37;;
11191;SDS011;5652;48.406;10.820;2023-04-06T02:36:03;13.90;;;11.85;;
11191;SDS011;5652;48.406;10.820;2023-04-06T02:38:30;13.77;;;11.70;;
11191;SDS011;5652;48.406;10.820;2023-04-06T02:40:57;16.73;;;12.87;;
11191;SDS011;5652;48.406;10.820;2023-04-06T02:43:24;14.63;;;12.73;;
11191;SDS011;5652;48.406;10.820;2023-04-06T02:45:51;14.00;;;12.47;;
11191;SDS011;5652;48.406;10.820;2023-04-06T02:48:20;14.63;;;12.20;;
11191;SDS011;5652;48.406;10.820;2023-04-06T02:50:47;16.45;;;13.40;;
11191;SDS011;5652;48.406;10.820;2023-04-06T02:53:14;17.17;;;13.43;;
11191;SDS011;5652;48.406;10.820;2023-04-06T02:55:42;17.13;;;13.70;;
11191;SDS011;5652;48.406;10.820;2023-04-06T02:58:09;17.20;;;15.07;;
11191;SDS011;5652;48.406;10.820;2023-04-06T03:00:36;15.48;;;13.52;;
11191;SDS011;5652;48.406;10.820;2023-04-06T03:03:03;14.98;;;13.38;;
11191;SDS011;5652;48.406;10.820;2023-04-06T03:05:32;15.38;;;13.25;;
11191;SDS011;5652;48.406;10.820;2023-04-06T03:07:59;16.00;;;13.07;;
11191;SDS011;5652;48.406;10.820;2023-04-06T03:10:26;15.02;;;13.15;;
11191;SDS011;5652;48.406;10.820;2023-04-06T03:12:53;15.47;;;13.80;;
11191;SDS011;5652;48.406;10.820;2023-04-06T03:15:20;15.02;;;13.43;;
11191;SDS011;5652;48.406;10.820;2023-04-06T03:17:47;17.00;;;13.77;;
11191;SDS011;5652;48.406;10.820;2023-04-06T03:20:14;15.95;;;13.02;;
11191;SDS011;5652;48.406;10.820;2023-04-06T03:22:43;16.73;;;13.82;;
11191;SDS011;5652;48.406;10.820;2023-04-06T03:25:10;17.83;;;14.45;;
11191;SDS011;5652;48.406;10.820;2023-04-06T03:27:37;16.57;;;13.77;;
11191;SDS011;5652;48.406;10.820;2023-04-06T03:30:05;16.08;;;13.73;;
11191;SDS011;5652;48.406;10.820;2023-04-06T03:32:32;17.48;;;14.55;;
11191;SDS011;5652;48.406;10.820;2023-04-06T03:34:59;18.42;;;14.40;;
11191;SDS011;5652;48.406;10.820;2023-04-06T03:37:26;17.83;;;14.85;;
11191;SDS011;5652;48.406;10.820;2023-04-06T03:39:55;18.63;;;15.40;;
11191;SDS011;5652;48.406;10.820;2023-04-06T03:42:23;17.75;;;15.15;;
11191;SDS011;5652;48.406;10.820;2023-04-06T03:44:50;17.25;;;14.95;;
11191;SDS011;5652;48.406;10.820;2023-04-06T03:47:17;15.38;;;13.73;;
11191;SDS011;5652;48.406;10.820;2023-04-06T03:49:44;18.73;;;15.63;;
11191;SDS011;5652;48.406;10.820;2023-04-06T03:52:11;16.45;;;14.75;;
11191;SDS011;5652;48.406;10.820;2023-04-06T03:54:38;16.70;;;14.32;;
11191;SDS011;5652;48.406;10.820;2023-04-06T03:57:07;18.23;;;14.65;;
11191;SDS011;5652;48.406;10.820;2023-04-06T03:59:34;16.33;;;13.32;;
11191;SDS011;5652;48.406;10.820;2023-04-06T04:02:01;15.88;;;13.45;;
11191;SDS011;5652;48.406;10.820;2023-04-06T04:04:28;16.33;;;13.77;;
11191;SDS011;5652;48.406;10.820;2023-04-06T04:06:55;16.17;;;13.90;;
11191;SDS011;5652;48.406;10.820;2023-04-06T04:09:23;15.77;;;14.02;;
11191;SDS011;5652;48.406;10.820;2023-04-06T04:11:50;16.23;;;14.10;;
11191;SDS011;5652;48.406;10.820;2023-04-06T04:14:19;17.52;;;13.75;;
11191;SDS011;5652;48.406;10.820;2023-04-06T04:16:46;18.20;;;15.40;;
11191;SDS011;5652;48.406;10.820;2023-04-06T04:19:13;19.38;;;15.57;;
11191;SDS011;5652;48.406;10.820;2023-04-06T04:21:44;19.90;;;16.80;;
11191;SDS011;5652;48.406;10.820;2023-04-06T04:24:12;23.60;;;17.95;;
11191;SDS011;5652;48.406;10.820;2023-04-06T04:26:39;18.67;;;16.67;;
11191;SDS011;5652;48.406;10.820;2023-04-06T04:29:08;19.97;;;16.97;;
11191;SDS011;5652;48.406;10.820;2023-04-06T04:31:36;19.55;;;16.52;;
11191;SDS011;5652;48.406;10.820;2023-04-06T04:34:04;21.20;;;16.55;;
11191;SDS011;5652;48.406;10.820;2023-04-06T04:36:31;20.77;;;17.20;;
11191;SDS011;5652;48.406;10.820;2023-04-06T04:39:00;19.97;;;16.70;;
11191;SDS011;5652;48.406;10.820;2023-04-06T04:41:27;23.75;;;17.90;;
11191;SDS011;5652;48.406;10.820;2023-04-06T04:43:54;19.55;;;16.35;;
11191;SDS011;5652;48.406;10.820;2023-04-06T04:46:21;21.08;;;16.15;;
11191;SDS011;5652;48.406;10.820;2023-04-06T04:48:49;19.13;;;16.15;;
11191;SDS011;5652;48.406;10.820;2023-04-06T04:51:18;20.65;;;16.63;;
11191;SDS011;5652;48.406;10.820;2023-04-06T04:53:45;20.90;;;16.83;;
11191;SDS011;5652;48.406;10.820;2023-04-06T04:56:12;23.05;;;18.00;;
11191;SDS011;5652;48.406;10.820;2023-04-06T04:58:40;21.70;;;18.33;;
11191;SDS011;5652;48.406;10.820;2023-04-06T05:01:07;21.77;;;17.88;;
11191;SDS011;5652;48.406;10.820;2023-04-06T05:03:36;24.60;;;19.15;;
11191;SDS011;5652;48.406;10.820;2023-04-06T05:06:06;25.65;;;19.33;;
11191;SDS011;5652;48.406;10.820;2023-04-06T05:08:33;24.45;;;18.30;;
11191;SDS011;5652;48.406;10.820;2023-04-06T05:11:00;23.42;;;19.33;;
11191;SDS011;5652;48.406;10.820;2023-04-06T05:13:27;22.33;;;18.48;;
11191;SDS011;5652;48.406;10.820;2023-04-06T05:15:54;21.42;;;18.10;;
11191;SDS011;5652;48.406;10.820;2023-04-06T05:18:21;24.88;;;17.75;;
11191;SDS011;5652;48.406;10.820;2023-04-06T05:20:48;23.27;;;17.92;;
11191;SDS011;5652;48.406;10.820;2023-04-06T05:23:18;21.65;;;18.23;;
11191;SDS011;5652;48.406;10.820;2023-04-06T05:25:45;22.10;;;17.50;;
11191;SDS011;5652;48.406;10.820;2023-04-06T05:28:12;20.08;;;16.38;;
11191;SDS011;5652;48.406;10.820;2023-04-06T05:30:41;20.80;;;16.17;;
11191;SDS011;5652;48.406;10.820;2023-04-06T05:33:08;17.85;;;14.82;;
11191;SDS011;5652;48.406;10.820;2023-04-06T05:35:36;19.88;;;15.93;;
11191;SDS011;5652;48.406;10.820;2023-04-06T05:38:03;19.50;;;15.77;;
11191;SDS011;5652;48.406;10.820;2023-04-06T05:40:31;18.13;;;16.10;;
11191;SDS011;5652;48.406;10.820;2023-04-06T05:42:59;20.42;;;15.18;;
11191;SDS011;5652;48.406;10.820;2023-04-06T05:45:26;18.88;;;14.52;;
11191;SDS011;5652;48.406;10.820;2023-04-06T05:47:53;15.45;;;13.38;;
11191;SDS011;5652;48.406;10.820;2023-04-06T05:50:20;15.87;;;12.70;;
11191;SDS011;5652;48.406;10.820;2023-04-06T05:52:47;14.95;;;11.43;;
11191;SDS011;5652;48.406;10.820;2023-04-06T05:55:14;14.30;;;11.73;;
11191;SDS011;5652;48.406;10.820;2023-04-06T05:57:43;14.25;;;11.88;;
11191;SDS011;5652;48.406;10.820;2023-04-06T06:00:10;14.18;;;11.48;;
11191;SDS011;5652;48.406;10.820;2023-04-06T06:02:38;12.77;;;10.18;;
11191;SDS011;5652;48.406;10.820;2023-04-06T06:05:07;12.68;;;9.73;;
11191;SDS011;5652;48.406;10.820;2023-04-06T06:07:34;11.88;;;9.45;;
11191;SDS011;5652;48.406;10.820;2023-04-06T06:10:02;10.95;;;9.15;;
11191;SDS011;5652;48.406;10.820;2023-04-06T06:12:29;10.00;;;8.40;;
11191;SDS011;5652;48.406;10.820;2023-04-06T06:14:57;10.98;;;8.38;;
11191;SDS011;5652;48.406;10.820;2023-04-06T06:17:25;10.95;;;8.38;;
11191;SDS011;5652;48.406;10.820;2023-04-06T06:19:52;9.13;;;8.00;;
11191;SDS011;5652;48.406;10.820;2023-04-06T06:22:19;11.90;;;8.00;;
11191;SDS011;5652;48.406;10.820;2023-04-06T06:24:46;12.25;;;8.38;;
11191;SDS011;5652;48.406;10.820;2023-04-06T06:27:14;8.52;;;7.53;;
11191;SDS011;5652;48.406;10.820;2023-04-06T06:29:42;8.15;;;7.07;;
11191;SDS011;5652;48.406;10.820;2023-04-06T06:32:10;8.33;;;6.77;;
11191;SDS011;5652;48.406;10.820;2023-04-06T06:34:37;9.05;;;6.95;;
11191;SDS011;5652;48.406;10.820;2023-04-06T06:37:05;9.23;;;6.60;;
11191;SDS011;5652;48.406;10.820;2023-04-06T06:39:32;8.55;;;6.82;;
11191;SDS011;5652;48.406;10.820;2023-04-06T06:41:59;9.40;;;6.50;;
11191;SDS011;5652;48.406;10.820;2023-04-06T06:44:26;9.38;;;6.72;;
11191;SDS011;5652;48.406;10.820;2023-04-06T06:46:53;12.38;;;8.40;;
11191;SDS011;5652;48.406;10.820;2023-04-06T06:49:22;11.00;;;6.55;;
11191;SDS011;5652;48.406;10.820;2023-04-06T06:51:50;11.02;;;6.03;;
11191;SDS011;5652;48.406;10.820;2023-04-06T06:54:17;7.70;;;5.80;;
11191;SDS011;5652;48.406;10.820;2023-04-06T06:56:44;9.55;;;6.25;;
11191;SDS011;5652;48.406;10.820;2023-04-06T06:59:11;7.50;;;5.83;;
11191;SDS011;5652;48.406;10.820;2023-04-06T07:01:38;8.27;;;5.60;;
11191;SDS011;5652;48.406;10.820;2023-04-06T07:04:05;9.05;;;5.90;;
11191;SDS011;5652;48.406;10.820;2023-04-06T07:06:35;8.55;;;6.15;;
11191;SDS011;5652;48.406;10.820;2023-04-06T07:09:02;9.20;;;6.13;;
11191;SDS011;5652;48.406;10.820;2023-04-06T07:11:30;10.40;;;6.05;;
11191;SDS011;5652;48.406;10.820;2023-04-06T07:13:57;8.07;;;5.70;;
11191;SDS011;5652;48.406;10.820;2023-04-06T07:16:24;8.27;;;5.72;;
11191;SDS011;5652;48.406;10.820;2023-04-06T07:18:51;8.43;;;6.00;;
11191;SDS011;5652;48.406;10.820;2023-04-06T07:21:18;8.17;;;5.80;;
11191;SDS011;5652;48.406;10.820;2023-04-06T07:23:47;9.85;;;5.57;;
11191;SDS011;5652;48.406;10.820;2023-04-06T07:26:15;8.90;;;5.90;;
11191;SDS011;5652;48.406;10.820;2023-04-06T07:28:42;8.00;;;5.90;;
11191;SDS011;5652;48.406;10.820;2023-04-06T07:31:09;9.50;;;6.35;;
11191;SDS011;5652;48.406;10.820;2023-04-06T07:33:37;9.63;;;6.18;;
11191;SDS011;5652;48.406;10.820;2023-04-06T07:36:05;9.98;;;5.43;;
11191;SDS011;5652;48.406;10.820;2023-04-06T07:38:32;7.85;;;5.63;;
11191;SDS011;5652;48.406;10.820;2023-04-06T07:41:00;8.77;;;6.20;;
11191;SDS011;5652;48.406;10.820;2023-04-06T07:43:29;9.52;;;6.60;;
11191;SDS011;5652;48.406;10.820;2023-04-06T07:45:56;7.22;;;5.18;;
11191;SDS011;5652;48.406;10.820;2023-04-06T07:48:24;8.98;;;5.18;;
11191;SDS011;5652;48.406;10.820;2023-04-06T07:50:51;6.80;;;5.07;;
11191;SDS011;5652;48.406;10.820;2023-04-06T07:53:18;7.60;;;5.37;;
11191;SDS011;5652;48.406;10.820;2023-04-06T07:55:45;7.45;;;5.50;;
11191;SDS011;5652;48.406;10.820;2023-04-06T07:58:14;10.15;;;5.22;;
11191;SDS011;5652;48.406;10.820;2023-04-06T08:00:41;7.30;;;4.97;;
11191;SDS011;5652;48.406;10.820;2023-04-06T08:03:08;8.13;;;5.30;;
11191;SDS011;5652;48.406;10.820;2023-04-06T08:05:38;7.80;;;5.20;;
11191;SDS011;5652;48.406;10.820;2023-04-06T08:08:05;8.60;;;5.72;;
11191;SDS011;5652;48.406;10.820;2023-04-06T08:10:32;9.15;;;5.28;;
11191;SDS011;5652;48.406;10.820;2023-04-06T08:13:00;8.63;;;5.43;;
11191;SDS011;5652;48.406;10.820;2023-04-06T08:15:28;8.63;;;5.28;;
11191;SDS011;5652;48.406;10.820;2023-04-06T08:17:55;7.67;;;5.53;;
11191;SDS011;5652;48.406;10.820;2023-04-06T08:20:23;9.07;;;5.68;;
11191;SDS011;5652;48.406;10.820;2023-04-06T08:22:50;9.68;;;6.30;;
11191;SDS011;5652;48.406;10.820;2023-04-06T08:25:17;9.02;;;5.47;;
11191;SDS011;5652;48.406;10.820;2023-04-06T08:27:44;7.78;;;5.78;;
11191;SDS011;5652;48.406;10.820;2023-04-06T08:30:12;7.88;;;5.72;;
11191;SDS011;5652;48.406;10.820;2023-04-06T08:32:41;9.52;;;5.93;;
11191;SDS011;5652;48.406;10.820;2023-04-06T08:35:08;9.73;;;5.80;;
11191;SDS011;5652;48.406;10.820;2023-04-06T08:37:35;8.35;;;5.53;;
11191;SDS011;5652;48.406;10.820;2023-04-06T08:40:03;7.43;;;5.60;;
11191;SDS011;5652;48.406;10.820;2023-04-06T08:42:31;8.77;;;5.72;;
11191;SDS011;5652;48.406;10.820;2023-04-06T08:44:59;8.90;;;6.17;;
11191;SDS011;5652;48.406;10.820;2023-04-06T08:47:27;8.30;;;5.65;;
11191;SDS011;5652;48.406;10.820;2023-04-06T08:49:57;7.68;;;5.40;;
11191;SDS011;5652;48.406;10.820;2023-04-06T08:52:25;8.43;;;5.93;;
11191;SDS011;5652;48.406;10.820;2023-04-06T08:54:53;8.65;;;5.80;;
11191;SDS011;5652;48.406;10.820;2023-04-06T08:57:20;8.85;;;5.95;;
11191;SDS011;5652;48.406;10.820;2023-04-06T08:59:48;8.10;;;5.45;;
11191;SDS011;5652;48.406;10.820;2023-04-06T09:02:17;7.90;;;5.60;;
11191;SDS011;5652;48.406;10.820;2023-04-06T09:04:45;9.33;;;5.87;;
11191;SDS011;5652;48.406;10.820;2023-04-06T09:07:14;8.55;;;5.95;;
11191;SDS011;5652;48.406;10.820;2023-04-06T09:09:41;8.88;;;6.30;;
11191;SDS011;5652;48.406;10.820;2023-04-06T09:12:21;7.77;;;6.00;;
11191;SDS011;5652;48.406;10.820;2023-04-06T09:14:48;7.80;;;5.60;;
11191;SDS011;5652;48.406;10.820;2023-04-06T09:17:19;8.73;;;5.90;;
11191;SDS011;5652;48.406;10.820;2023-04-06T09:19:47;9.23;;;5.68;;
11191;SDS011;5652;48.406;10.820;2023-04-06T09:22:15;8.30;;;5.95;;
11191;SDS011;5652;48.406;10.820;2023-04-06T09:24:43;8.15;;;6.10;;
11191;SDS011;5652;48.406;10.820;2023-04-06T09:27:11;8.73;;;6.00;;
11191;SDS011;5652;48.406;10.820;2023-04-06T09:29:38;7.50;;;5.95;;
11191;SDS011;5652;48.406;10.820;2023-04-06T09:32:05;9.85;;;6.35;;
11191;SDS011;5652;48.406;10.820;2023-04-06T09:34:35;9.30;;;5.78;;
11191;SDS011;5652;48.406;10.820;2023-04-06T09:37:11;8.68;;;6.03;;
11191;SDS011;5652;48.406;10.820;2023-04-06T09:39:40;8.88;;;6.00;;
11191;SDS011;5652;48.406;10.820;2023-04-06T09:42:07;8.25;;;6.10;;
11191;SDS011;5652;48.406;10.820;2023-04-06T09:44:35;9.13;;;6.23;;
11191;SDS011;5652;48.406;10.820;2023-04-06T09:47:02;9.27;;;6.20;;
11191;SDS011;5652;48.406;10.820;2023-04-06T09:49:34;9.27;;;6.32;;
11191;SDS011;5652;48.406;10.820;2023-04-06T09:52:02;8.20;;;5.40;;
11191;SDS011;5652;48.406;10.820;2023-04-06T09:54:30;9.15;;;5.35;;
11191;SDS011;5652;48.406;10.820;2023-04-06T09:57:00;8.57;;;4.95;;
11191;SDS011;5652;48.406;10.820;2023-04-06T09:59:31;8.10;;;5.30;;
11191;SDS011;5652;48.406;10.820;2023-04-06T10:02:03;7.45;;;5.35;;
11191;SDS011;5652;48.406;10.820;2023-04-06T10:04:34;6.22;;;4.18;;
11191;SDS011;5652;48.406;10.820;2023-04-06T10:07:03;7.50;;;5.28;;
11191;SDS011;5652;48.406;10.820;2023-04-06T10:09:31;6.63;;;4.90;;
11191;SDS011;5652;48.406;10.820;2023-04-06T10:12:03;7.85;;;5.55;;
11191;SDS011;5652;48.406;10.820;2023-04-06T10:14:31;8.57;;;5.32;;
11191;SDS011;5652;48.406;10.820;2023-04-06T10:16:59;9.35;;;5.70;;
11191;SDS011;5652;48.406;10.820;2023-04-06T10:19:26;7.15;;;5.03;;
11191;SDS011;5652;48.406;10.820;2023-04-06T10:21:55;6.93;;;4.97;;
11191;SDS011;5652;48.406;10.820;2023-04-06T10:24:24;7.57;;;5.13;;
11191;SDS011;5652;48.406;10.820;2023-04-06T10:26:57;6.78;;;5.07;;
11191;SDS011;5652;48.406;10.820;2023-04-06T10:29:26;8.27;;;5.60;;
11191;SDS011;5652;48.406;10.820;2023-04-06T10:31:53;8.20;;;5.45;;
11191;SDS011;5652;48.406;10.820;2023-04-06T10:34:21;8.15;;;5.53;;
11191;SDS011;5652;48.406;10.820;2023-04-06T10:36:48;8.48;;;5.35;;
11191;SDS011;5652;48.406;10.820;2023-04-06T10:39:15;8.30;;;5.40;;
11191;SDS011;5652;48.406;10.820;2023-04-06T10:41:52;10.38;;;6.53;;
11191;SDS011;5652;48.406;10.820;2023-04-06T10:44:19;7.03;;;4.50;;
11191;SDS011;5652;48.406;10.820;2023-04-06T10:46:53;7.53;;;4.90;;
11191;SDS011;5652;48.406;10.820;2023-04-06T10:49:21;6.50;;;4.55;;
11191;SDS011;5652;48.406;10.820;2023-04-06T10:51:51;8.50;;;5.10;;
11191;SDS011;5652;48.406;10.820;2023-04-06T10:54:19;5.65;;;3.75;;
11191;SDS011;5652;48.406;10.820;2023-04-06T10:56:47;5.13;;;3.95;;
11191;SDS011;5652;48.406;10.820;2023-04-06T10:59:17;4.28;;;3.40;;
11191;SDS011;5652;48.406;10.820;2023-04-06T11:01:45;5.70;;;3.88;;
11191;SDS011;5652;48.406;10.820;2023-04-06T11:04:16;6.57;;;5.03;;
11191;SDS011;5652;48.406;10.820;2023-04-06T11:06:46;7.28;;;5.20;;
11191;SDS011;5652;48.406;10.820;2023-04-06T11:09:23;6.57;;;5.03;;
11191;SDS011;5652;48.406;10.820;2023-04-06T11:11:51;6.68;;;4.60;;
11191;SDS011;5652;48.406;10.820;2023-04-06T11:14:18;6.88;;;4.80;;
11191;SDS011;5652;48.406;10.820;2023-04-06T11:16:46;5.57;;;4.68;;
11191;SDS011;5652;48.406;10.820;2023-04-06T11:19:13;6.18;;;4.57;;
11191;SDS011;5652;48.406;10.820;2023-04-06T11:21:42;6.03;;;4.68;;
11191;SDS011;5652;48.406;10.820;2023-04-06T11:24:12;7.03;;;3.58;;
11191;SDS011;5652;48.406;10.820;2023-04-06T11:26:40;5.70;;;4.18;;
11191;SDS011;5652;48.406;10.820;2023-04-06T11:29:08;6.20;;;4.30;;
11191;SDS011;5652;48.406;10.820;2023-04-06T11:31:39;6.33;;;4.37;;
11191;SDS011;5652;48.406;10.820;2023-04-06T11:34:10;6.75;;;4.15;;
11191;SDS011;5652;48.406;10.820;2023-04-06T11:36:39;6.68;;;4.60;;
11191;SDS011;5652;48.406;10.820;2023-04-06T11:39:08;6.20;;;4.73;;
11191;SDS011;5652;48.406;10.820;2023-04-06T11:41:35;5.82;;;4.32;;
11191;SDS011;5652;48.406;10.820;2023-04-06T11:44:02;7.18;;;4.40;;
11191;SDS011;5652;48.406;10.820;2023-04-06T11:46:30;6.00;;;4.43;;
11191;SDS011;5652;48.406;10.820;2023-04-06T11:49:00;5.93;;;4.18;;
11191;SDS011;5652;48.406;10.820;2023-04-06T11:51:28;5.57;;;4.40;;
11191;SDS011;5652;48.406;10.820;2023-04-06T11:53:55;6.10;;;4.50;;
11191;SDS011;5652;48.406;10.820;2023-04-06T11:56:24;5.95;;;4.75;;
11191;SDS011;5652;48.406;10.820;2023-04-06T11:58:51;6.68;;;4.45;;
11191;SDS011;5652;48.406;10.820;2023-04-06T12:01:18;5.57;;;4.85;;
11191;SDS011;5652;48.406;10.820;2023-04-06T12:03:45;5.70;;;4.55;;
11191;SDS011;5652;48.406;10.820;2023-04-06T12:06:13;5.40;;;4.33;;
11191;SDS011;5652;48.406;10.820;2023-04-06T12:08:40;7.40;;;4.38;;
11191;SDS011;5652;48.406;10.820;2023-04-06T12:11:07;5.13;;;3.75;;
11191;SDS011;5652;48.406;10.820;2023-04-06T12:13:36;5.88;;;4.38;;
11191;SDS011;5652;48.406;10.820;2023-04-06T12:16:03;6.43;;;4.57;;
11191;SDS011;5652;48.406;10.820;2023-04-06T12:18:31;12.68;;;5.00;;
11191;SDS011;5652;48.406;10.820;2023-04-06T12:20:58;6.25;;;4.32;;
11191;SDS011;5652;48.406;10.820;2023-04-06T12:23:25;6.45;;;4.20;;
11191;SDS011;5652;48.406;10.820;2023-04-06T12:25:52;6.90;;;4.75;;
11191;SDS011;5652;48.406;10.820;2023-04-06T12:28:20;6.07;;;4.35;;
11191;SDS011;5652;48.406;10.820;2023-04-06T12:30:50;5.35;;;4.40;;
11191;SDS011;5652;48.406;10.820;2023-04-06T12:33:17;6.03;;;4.25;;
11191;SDS011;5652;48.406;10.820;2023-04-06T12:35:44;6.57;;;4.43;;
11191;SDS011;5652;48.406;10.820;2023-04-06T12:38:11;6.80;;;4.18;;
11191;SDS011;5652;48.406;10.820;2023-04-06T12:40:39;6.07;;;3.97;;
11191;SDS011;5652;48.406;10.820;2023-04-06T12:43:06;5.47;;;4.00;;
11191;SDS011;5652;48.406;10.820;2023-04-06T12:45:33;5.05;;;3.95;;
11191;SDS011;5652;48.406;10.820;2023-04-06T12:48:02;3.93;;;3.50;;
11191;SDS011;5652;48.406;10.820;2023-04-06T12:50:29;5.70;;;4.05;;
11191;SDS011;5652;48.406;10.820;2023-04-06T12:52:56;5.45;;;3.58;;
11191;SDS011;5652;48.406;10.820;2023-04-06T12:55:23;4.73;;;3.87;;
11191;SDS011;5652;48.406;10.820;2023-04-06T12:57:51;4.10;;;3.70;;
11191;SDS011;5652;48.406;10.820;2023-04-06T13:00:19;4.97;;;3.90;;
11191;SDS011;5652;48.406;10.820;2023-04-06T13:02:46;4.85;;;3.85;;
11191;SDS011;5652;48.406;10.820;2023-04-06T13:05:15;5.10;;;4.03;;
11191;SDS011;5652;48.406;10.820;2023-04-06T13:07:43;5.28;;;3.83;;
11191;SDS011;5652;48.406;10.820;2023-04-06T13:10:11;4.47;;;3.33;;
11191;SDS011;5652;48.406;10.820;2023-04-06T13:12:59;5.75;;;3.75;;
11191;SDS011;5652;48.406;10.820;2023-04-06T13:15:26;5.20;;;3.63;;
11191;SDS011;5652;48.406;10.820;2023-04-06T13:17:53;5.75;;;4.28;;
11191;SDS011;5652;48.406;10.820;2023-04-06T13:20:22;4.88;;;3.80;;
11191;SDS011;5652;48.406;10.820;2023-04-06T13:22:49;5.97;;;3.90;;
11191;SDS011;5652;48.406;10.820;2023-04-06T13:25:17;5.88;;;4.75;;
11191;SDS011;5652;48.406;10.820;2023-04-06T13:27:44;5.88;;;4.78;;
11191;SDS011;5652;48.406;10.820;2023-04-06T13:30:13;6.65;;;5.05;;
11191;SDS011;5652;48.406;10.820;2023-04-06T13:32:41;8.68;;;4.70;;
11191;SDS011;5652;48.406;10.820;2023-04-06T13:35:08;6.35;;;5.40;;
11191;SDS011;5652;48.406;10.820;2023-04-06T13:37:38;8.07;;;5.28;;
11191;SDS011;5652;48.406;10.820;2023-04-06T13:40:05;7.57;;;5.13;;
11191;SDS011;5652;48.406;10.820;2023-04-06T13:42:32;6.63;;;5.07;;
11191;SDS011;5652;48.406;10.820;2023-04-06T13:45:00;6.55;;;4.15;;
11191;SDS011;5652;48.406;10.820;2023-04-06T13:47:27;4.38;;;3.72;;
11191;SDS011;5652;48.406;10.820;2023-04-06T13:49:55;6.22;;;3.83;;
11191;SDS011;5652;48.406;10.820;2023-04-06T13:52:23;4.35;;;3.55;;
11191;SDS011;5652;48.406;10.820;2023-04-06T13:54:56;4.15;;;2.95;;
11191;SDS011;5652;48.406;10.820;2023-04-06T13:57:23;4.63;;;3.20;;
11191;SDS011;5652;48.406;10.820;2023-04-06T13:59:51;5.88;;;3.92;;
11191;SDS011;5652;48.406;10.820;2023-04-06T14:02:18;5.15;;;4.20;;
11191;SDS011;5652;48.406;10.820;2023-04-06T14:04:51;4.97;;;3.63;;
11191;SDS011;5652;48.406;10.820;2023-04-06T14:07:19;3.70;;;2.90;;
11191;SDS011;5652;48.406;10.820;2023-04-06T14:09:46;5.00;;;3.67;;
11191;SDS011;5652;48.406;10.820;2023-04-06T14:12:14;5.18;;;3.50;;
11191;SDS011;5652;48.406;10.820;2023-04-06T14:14:41;4.22;;;2.85;;
11191;SDS011;5652;48.406;10.820;2023-04-06T14:17:08;4.68;;;3.40;;
11191;SDS011;5652;48.406;10.820;2023-04-06T14:19:36;4.57;;;3.27;;
11191;SDS011;5652;48.406;10.820;2023-04-06T14:22:03;4.28;;;3.45;;
11191;SDS011;5652;48.406;10.820;2023-04-06T14:24:30;6.45;;;3.97;;
11191;SDS011;5652;48.406;10.820;2023-04-06T14:26:57;6.00;;;4.22;;
11191;SDS011;5652;48.406;10.820;2023-04-06T14:29:25;5.20;;;3.70;;
11191;SDS011;5652;48.406;10.820;2023-04-06T14:31:52;5.13;;;3.53;;
11191;SDS011;5652;48.406;10.820;2023-04-06T14:34:24;6.10;;;3.60;;
11191;SDS011;5652;48.406;10.820;2023-04-06T14:36:51;4.63;;;3.40;;
11191;SDS011;5652;48.406;10.820;2023-04-06T14:39:18;7.20;;;4.20;;